West Turin, New York
Current Conditions -  °F | °C
As of 9:53 PM on Monday 22 Dec 2014 (Local Time) from KRME Reporting Station
Overcast Overcast  
Wind Chill: 28°   Ceiling: 2500
Heat Index: 36°   Visibility: 10mi
Dew Point: 31°   Wind: 10mph
Humidity: 82%   Direction: 120°ESE
Pressure: 30.18"   Gusts: NA
Location:  43.5832°N, 75.5707°W
Report Text: KRME 230253Z AUTO 12009KT 10SM OVC025 02/M01 A3018 RMK AO2 SLP224 T00221006 58008
Loading
Personal Weather Stations






























Interactive Weather Map New forecast layout! Learn more

10-Day Weather Forecast

Advertisements
Track Severe Weather on mobile